Terminal Aerodrome Forecast
Issued by NWS

Home | Current Version | Previous Version | Text Only | Print | Product List | Glossary On
Versions: 1 2 3 4 5 6 7 8 9 10 11 12 13 14 15 16 17
160
FTUS45 KRIW 241122
TAFCOD
TAF
KCOD 241122Z 2412/2512 VRB06KT P6SM FEW120
     FM242200 27011G22KT P6SM VCSH SCT040 BKN060
     FM250500 VRB06KT P6SM BKN080 BKN140
     FM250900 VRB06KT P6SM SCT015 BKN025
      AMD LTD TO CLD VIS AND WIND=

USA.gov is the U.S. government's official web portal to all federal, state and local government web resources and services.